createdAt,value
2022-11-28T00:00:02.933Z,78.06
2022-11-28T00:01:03.783Z,78.06
2022-11-28T00:02:04.686Z,78.16
2022-11-28T00:03:05.665Z,78.16
2022-11-28T00:04:06.327Z,78.16
2022-11-28T00:05:07.295Z,78.36
2022-11-28T00:06:08.135Z,78.98
2022-11-28T00:07:08.684Z,79.08
2022-11-28T00:08:09.568Z,78.57
2022-11-28T00:09:10.343Z,78.36
2022-11-28T00:10:11.196Z,79.08
2022-11-28T00:11:12.053Z,79.19
2022-11-28T00:12:12.902Z,78.88
2022-11-28T00:13:13.776Z,79.08
2022-11-28T00:14:14.640Z,78.98
2022-11-28T00:15:15.486Z,79.60
2022-11-28T00:16:16.402Z,79.19
2022-11-28T00:17:17.225Z,79.08
2022-11-28T00:18:18.079Z,79.39
2022-11-28T00:19:18.934Z,79.80
2022-11-28T00:20:19.903Z,79.91
2022-11-28T00:21:20.672Z,80.11
2022-11-28T00:22:21.518Z,79.91
2022-11-28T00:23:22.386Z,80.42
2022-11-28T00:24:23.271Z,80.52
2022-11-28T00:25:24.123Z,81.24
2022-11-28T00:26:24.980Z,82.99
2022-11-28T00:27:25.837Z,83.95
2022-11-28T00:28:26.686Z,83.64
2022-11-28T00:29:27.758Z,84.26
2022-11-28T00:30:28.112Z,85.33
2022-11-28T00:31:29.041Z,86.97
2022-11-28T00:32:29.934Z,86.97
2022-11-28T00:33:30.797Z,87.07
2022-11-28T00:34:31.645Z,87.49
2022-11-28T00:35:32.629Z,88.56
2022-11-28T00:36:33.437Z,89.89
2022-11-28T00:37:34.288Z,90.20
2022-11-28T00:38:35.159Z,90.72
2022-11-28T00:39:35.974Z,90.86
2022-11-28T00:40:36.844Z,92.10
2022-11-28T00:41:37.696Z,91.58
2022-11-28T00:42:38.546Z,92.30
2022-11-28T00:43:39.400Z,93.68
2022-11-28T00:44:41.155Z,93.23
2022-11-28T00:45:41.064Z,92.92
2022-11-28T00:46:41.906Z,93.43
2022-11-28T00:47:42.755Z,94.71
2022-11-28T00:48:43.616Z,94.51
2022-11-28T00:49:44.760Z,94.20
2022-11-28T00:50:45.222Z,93.99
2022-11-28T00:51:45.990Z,93.48
2022-11-28T00:52:46.842Z,94.40
2022-11-28T00:53:47.814Z,93.88
2022-11-28T00:54:48.759Z,94.51
2022-11-28T00:55:49.114Z,92.40
2022-11-28T00:56:49.959Z,92.50
2022-11-28T00:57:50.808Z,93.02
2022-11-28T00:58:51.672Z,92.92
2022-11-28T00:59:52.760Z,93.23
2022-11-28T01:00:53.191Z,93.23
2022-11-28T01:01:54.065Z,93.64
2022-11-28T01:02:54.868Z,93.84
2022-11-28T01:03:55.719Z,93.88
2022-11-28T01:04:56.577Z,92.92
2022-11-28T01:05:57.542Z,93.02
2022-11-28T01:06:58.307Z,92.30
2022-11-28T01:07:59.198Z,93.54
2022-11-28T01:09:00.126Z,93.43
2022-11-28T01:10:01.259Z,92.30
2022-11-28T01:11:01.605Z,91.99
2022-11-28T01:12:02.467Z,93.33
2022-11-28T01:13:03.319Z,93.12
2022-11-28T01:14:04.181Z,92.61
2022-11-28T01:15:05.252Z,93.33
2022-11-28T01:16:05.677Z,92.61
2022-11-28T01:17:06.516Z,94.09
2022-11-28T01:18:07.637Z,93.95
2022-11-28T01:19:07.999Z,95.64
2022-11-28T01:20:08.860Z,95.02
2022-11-28T01:21:09.877Z,94.71
2022-11-28T01:22:10.640Z,94.92
2022-11-28T01:23:11.509Z,94.60
2022-11-28T01:24:12.461Z,95.53
2022-11-28T01:25:13.266Z,96.46
2022-11-28T01:26:14.118Z,95.84
2022-11-28T01:27:14.968Z,95.53
2022-11-28T01:28:15.817Z,95.53
2022-11-28T01:29:16.668Z,96.25
2022-11-28T01:30:17.752Z,96.15
2022-11-28T01:31:18.218Z,96.56
2022-11-28T01:32:19.064Z,97.13
2022-11-28T01:33:19.924Z,96.81
2022-11-28T01:34:20.777Z,98.05
2022-11-28T01:35:21.754Z,98.46
2022-11-28T01:36:22.717Z,98.46
2022-11-28T01:37:23.496Z,98.88
2022-11-28T01:38:24.351Z,99.18
2022-11-28T01:39:25.325Z,99.95
2022-11-28T01:40:26.251Z,99.99
2022-11-28T01:41:26.606Z,99.85
2022-11-28T01:42:27.457Z,99.99
2022-11-28T01:43:28.316Z,99.99
2022-11-28T01:44:29.166Z,99.99
2022-11-28T01:45:30.252Z,99.99
2022-11-28T01:46:30.650Z,99.99
2022-11-28T01:47:31.476Z,99.99
2022-11-28T01:48:32.328Z,99.99
2022-11-28T01:49:33.180Z,99.99
2022-11-28T01:50:34.250Z,99.99
2022-11-28T01:51:34.727Z,99.99
2022-11-28T01:52:35.498Z,99.99
2022-11-28T01:53:36.351Z,99.99
2022-11-28T01:54:37.309Z,99.99
2022-11-28T01:55:38.249Z,99.99
2022-11-28T01:56:38.602Z,99.99
2022-11-28T01:57:39.453Z,99.99
2022-11-28T01:58:40.334Z,99.99
2022-11-28T01:59:41.210Z,99.99
2022-11-28T02:00:42.106Z,99.99
2022-11-28T02:01:42.963Z,99.99
2022-11-28T02:02:43.784Z,99.99
2022-11-28T02:03:44.639Z,99.99
2022-11-28T02:04:45.506Z,99.99
2022-11-28T02:05:46.757Z,99.99
2022-11-28T02:06:47.235Z,99.99
2022-11-28T02:07:48.101Z,99.99
2022-11-28T02:08:48.914Z,99.99
2022-11-28T02:09:49.895Z,99.99
2022-11-28T02:10:50.752Z,99.99
2022-11-28T02:11:51.617Z,99.99
2022-11-28T02:12:52.667Z,99.99
2022-11-28T02:13:53.018Z,99.99
2022-11-28T02:14:53.877Z,99.99
2022-11-28T02:15:55.291Z,99.99
2022-11-28T02:16:55.605Z,99.99
2022-11-28T02:17:56.455Z,99.99
2022-11-28T02:18:57.323Z,99.99
2022-11-28T02:19:58.173Z,99.99
2022-11-28T02:20:59.246Z,99.99
2022-11-28T02:21:59.745Z,99.99
2022-11-28T02:23:00.519Z,99.99
2022-11-28T02:24:01.396Z,99.99
2022-11-28T02:25:02.380Z,99.99
2022-11-28T02:26:03.256Z,99.99
2022-11-28T02:27:04.109Z,99.99
2022-11-28T02:28:04.958Z,99.99
2022-11-28T02:29:05.809Z,99.99
2022-11-28T02:30:06.699Z,99.99
2022-11-28T02:31:07.775Z,99.99
2022-11-28T02:32:08.103Z,99.99
2022-11-28T02:33:08.957Z,99.99
2022-11-28T02:34:09.808Z,99.99
2022-11-28T02:35:10.663Z,99.99
2022-11-28T02:36:11.522Z,99.99
2022-11-28T02:37:12.489Z,99.99
2022-11-28T02:38:13.253Z,99.99
2022-11-28T02:39:14.102Z,99.99
2022-11-28T02:40:14.961Z,99.99
2022-11-28T02:41:15.863Z,99.99
2022-11-28T02:42:16.644Z,99.99
2022-11-28T02:43:17.499Z,99.99
2022-11-28T02:44:18.353Z,99.99
2022-11-28T02:45:19.203Z,99.99
2022-11-28T02:46:20.283Z,99.99
2022-11-28T02:47:20.594Z,99.99
2022-11-28T02:48:21.464Z,99.99
2022-11-28T02:49:22.317Z,99.99
2022-11-28T02:50:23.171Z,99.99
2022-11-28T02:51:24.241Z,99.99
2022-11-28T02:52:24.707Z,99.99
2022-11-28T02:53:25.478Z,99.99
2022-11-28T02:54:26.331Z,99.99
2022-11-28T02:55:27.187Z,99.90
2022-11-28T02:56:28.259Z,99.85
2022-11-28T02:57:28.536Z,99.13
2022-11-28T02:58:29.413Z,99.99
2022-11-28T02:59:30.269Z,99.74
2022-11-28T03:00:31.202Z,99.99
2022-11-28T03:01:32.085Z,99.99
2022-11-28T03:02:32.971Z,99.54
2022-11-28T03:03:33.778Z,99.43
2022-11-28T03:04:34.630Z,99.33
2022-11-28T03:05:35.489Z,99.13
2022-11-28T03:06:36.749Z,99.99
2022-11-28T03:07:37.309Z,99.64
2022-11-28T03:08:37.612Z,99.54
2022-11-28T03:09:38.459Z,98.50
2022-11-28T03:10:39.318Z,99.23
2022-11-28T03:11:40.196Z,98.41
2022-11-28T03:12:41.011Z,97.89
2022-11-28T03:13:41.861Z,98.41
2022-11-28T03:14:42.908Z,98.71
2022-11-28T03:15:43.325Z,98.61
2022-11-28T03:16:44.358Z,98.82
2022-11-28T03:17:44.691Z,98.82
2022-11-28T03:18:45.540Z,98.41
2022-11-28T03:19:46.390Z,97.78
2022-11-28T03:20:47.248Z,97.58
2022-11-28T03:21:48.110Z,97.38
2022-11-28T03:22:49.075Z,98.30
2022-11-28T03:23:49.840Z,97.89
2022-11-28T03:24:50.694Z,97.89
2022-11-28T03:25:51.544Z,97.38
2022-11-28T03:26:52.768Z,97.27
2022-11-28T03:27:53.080Z,97.89
2022-11-28T03:28:53.936Z,97.68
2022-11-28T03:29:54.785Z,97.78
2022-11-28T03:30:55.651Z,97.78
2022-11-28T03:31:56.822Z,96.96
2022-11-28T03:32:57.184Z,96.96
2022-11-28T03:33:58.099Z,97.78
2022-11-28T03:34:58.996Z,98.41
2022-11-28T03:35:59.832Z,97.27
2022-11-28T03:37:00.740Z,97.68
2022-11-28T03:38:01.708Z,97.27
2022-11-28T03:39:02.489Z,98.30
2022-11-28T03:40:03.346Z,97.58
2022-11-28T03:41:04.193Z,97.99
2022-11-28T03:42:05.254Z,96.75
2022-11-28T03:43:06.027Z,96.81
2022-11-28T03:44:06.885Z,96.41
2022-11-28T03:45:07.749Z,96.81
2022-11-28T03:46:08.601Z,96.61
2022-11-28T03:47:09.501Z,96.09
2022-11-28T03:48:10.319Z,95.89
2022-11-28T03:49:11.164Z,95.58
2022-11-28T03:50:12.016Z,95.99
2022-11-28T03:51:12.873Z,96.09
2022-11-28T03:52:13.733Z,95.37
2022-11-28T03:53:14.762Z,95.58
2022-11-28T03:54:15.525Z,94.76
2022-11-28T03:55:16.496Z,94.65
2022-11-28T03:56:17.328Z,94.96
2022-11-28T03:57:18.204Z,93.73
2022-11-28T03:58:18.997Z,93.41
2022-11-28T03:59:19.890Z,93.83
2022-11-28T04:00:20.763Z,93.41
2022-11-28T04:01:21.818Z,92.69
2022-11-28T04:02:22.233Z,93.06
2022-11-28T04:03:23.146Z,92.96
2022-11-28T04:04:23.949Z,92.44
2022-11-28T04:05:24.864Z,92.76
2022-11-28T04:06:25.711Z,91.42
2022-11-28T04:07:26.673Z,91.52
2022-11-28T04:08:27.609Z,90.80
2022-11-28T04:09:28.371Z,92.24
2022-11-28T04:10:29.222Z,92.24
2022-11-28T04:11:30.082Z,91.52
2022-11-28T04:12:30.959Z,92.03
2022-11-28T04:13:31.803Z,92.34
2022-11-28T04:14:32.654Z,91.00
2022-11-28T04:15:33.516Z,90.90
2022-11-28T04:16:34.497Z,90.49
2022-11-28T04:17:35.289Z,90.80
2022-11-28T04:18:36.155Z,90.39
2022-11-28T04:19:37.010Z,91.31
2022-11-28T04:20:37.857Z,91.72
2022-11-28T04:21:38.707Z,91.31
2022-11-28T04:22:39.566Z,89.46
2022-11-28T04:23:40.535Z,90.14
2022-11-28T04:24:41.635Z,89.56
2022-11-28T04:25:42.068Z,89.83
2022-11-28T04:26:42.923Z,90.24
2022-11-28T04:27:43.803Z,89.42
2022-11-28T04:28:44.606Z,88.70
2022-11-28T04:29:45.457Z,89.52
2022-11-28T04:30:46.306Z,87.87
2022-11-28T04:31:47.188Z,89.11
2022-11-28T04:32:48.014Z,88.80
2022-11-28T04:33:48.865Z,89.22
2022-11-28T04:34:49.720Z,89.42
2022-11-28T04:35:50.565Z,89.56
2022-11-28T04:36:51.419Z,90.14
2022-11-28T04:37:52.279Z,90.28
2022-11-28T04:38:53.258Z,91.21
2022-11-28T04:39:54.027Z,90.18
2022-11-28T04:40:54.878Z,90.59
2022-11-28T04:41:55.732Z,90.28
2022-11-28T04:42:56.608Z,89.77
2022-11-28T04:43:57.419Z,89.56
2022-11-28T04:44:58.264Z,90.59
2022-11-28T04:45:59.229Z,90.69
2022-11-28T04:47:00.003Z,90.18
2022-11-28T04:48:01.228Z,90.59
2022-11-28T04:49:01.580Z,91.00
2022-11-28T04:50:02.430Z,90.90
2022-11-28T04:51:03.283Z,91.21
2022-11-28T04:52:04.209Z,90.69
2022-11-28T04:53:04.992Z,90.80
2022-11-28T04:54:05.964Z,91.11
2022-11-28T04:55:06.724Z,90.28
2022-11-28T04:56:07.579Z,91.21
2022-11-28T04:57:08.428Z,90.28
2022-11-28T04:58:09.300Z,90.49
2022-11-28T04:59:10.072Z,90.80
2022-11-28T05:00:10.927Z,91.11
2022-11-28T05:01:11.983Z,89.77
2022-11-28T05:02:12.390Z,90.59
2022-11-28T05:03:13.207Z,90.28
2022-11-28T05:04:14.059Z,89.87
2022-11-28T05:05:14.916Z,90.59
2022-11-28T05:06:15.763Z,89.87
2022-11-28T05:07:16.646Z,89.77
2022-11-28T05:08:17.471Z,89.73
2022-11-28T05:09:18.438Z,89.94
2022-11-28T05:10:19.203Z,89.83
2022-11-28T05:11:20.053Z,89.94
2022-11-28T05:12:20.903Z,88.80
2022-11-28T05:13:21.789Z,89.42
2022-11-28T05:14:22.556Z,89.83
2022-11-28T05:15:23.414Z,89.01
2022-11-28T05:16:24.348Z,89.11
2022-11-28T05:17:25.148Z,89.42
2022-11-28T05:18:26.225Z,89.73
2022-11-28T05:19:26.589Z,89.83
2022-11-28T05:20:27.438Z,89.01
2022-11-28T05:21:28.289Z,88.18
2022-11-28T05:22:29.138Z,88.59
2022-11-28T05:23:29.996Z,88.80
2022-11-28T05:24:32.453Z,88.49
2022-11-28T05:25:31.345Z,88.18
2022-11-28T05:26:32.219Z,87.77
2022-11-28T05:27:33.068Z,87.67
2022-11-28T05:28:33.957Z,87.36
2022-11-28T05:29:34.730Z,87.84
2022-11-28T05:30:35.599Z,88.35
2022-11-28T05:31:36.514Z,86.70
2022-11-28T05:32:40.212Z,87.01
2022-11-28T05:33:38.239Z,85.57
2022-11-28T05:34:39.078Z,84.75
2022-11-28T05:35:39.945Z,85.78
2022-11-28T05:36:40.815Z,85.16
2022-11-28T05:37:41.671Z,85.36
2022-11-28T05:38:42.722Z,85.78
2022-11-28T05:39:43.501Z,85.26
2022-11-28T05:40:43.922Z,84.85
2022-11-28T05:41:44.786Z,85.06
2022-11-28T05:42:45.639Z,85.68
2022-11-28T05:43:46.725Z,85.16
2022-11-28T05:44:47.077Z,85.26
2022-11-28T05:45:47.996Z,83.62
2022-11-28T05:46:48.874Z,83.99
2022-11-28T05:47:49.727Z,82.96
2022-11-28T05:48:50.607Z,83.27
2022-11-28T05:49:51.364Z,82.96
2022-11-28T05:50:52.214Z,83.06
2022-11-28T05:51:53.074Z,83.27
2022-11-28T05:52:53.972Z,82.86
2022-11-28T05:53:54.831Z,83.06
2022-11-28T05:54:55.800Z,83.27
2022-11-28T05:55:56.566Z,83.68
2022-11-28T05:56:57.423Z,83.68
2022-11-28T05:57:58.289Z,83.68
2022-11-28T05:58:59.218Z,84.09
2022-11-28T06:00:00.083Z,83.99
2022-11-28T06:01:00.924Z,84.30
2022-11-28T06:02:01.870Z,84.09
2022-11-28T06:03:02.736Z,83.92
2022-11-28T06:04:03.802Z,84.30
2022-11-28T06:05:21.058Z,84.03
2022-11-28T06:06:05.881Z,84.61
2022-11-28T06:07:05.734Z,85.33
2022-11-28T06:08:06.600Z,84.75
2022-11-28T06:09:07.471Z,85.16
2022-11-28T06:10:08.441Z,85.78
2022-11-28T06:11:09.205Z,85.47
2022-11-28T06:12:10.076Z,85.16
2022-11-28T06:13:10.910Z,85.36
2022-11-28T06:14:12.217Z,86.08
2022-11-28T06:15:12.569Z,85.78
2022-11-28T06:16:13.461Z,86.19
2022-11-28T06:17:14.276Z,86.19
2022-11-28T06:18:15.126Z,86.29
2022-11-28T06:19:16.234Z,86.29
2022-11-28T06:20:16.600Z,86.80
2022-11-28T06:21:17.453Z,86.80
2022-11-28T06:22:18.316Z,86.70
2022-11-28T06:23:19.156Z,86.70
2022-11-28T06:24:20.017Z,87.32
2022-11-28T06:25:20.984Z,87.32
2022-11-28T06:26:21.765Z,87.94
2022-11-28T06:27:22.617Z,87.42
2022-11-28T06:28:23.659Z,87.77
2022-11-28T06:29:24.464Z,87.52
2022-11-28T06:30:24.825Z,87.84
2022-11-28T06:31:25.721Z,87.52
2022-11-28T06:32:26.521Z,87.22
2022-11-28T06:33:27.375Z,87.63
2022-11-28T06:34:36.250Z,87.52
2022-11-28T06:35:29.877Z,87.63
2022-11-28T06:36:29.734Z,87.32
2022-11-28T06:37:30.593Z,86.91
2022-11-28T06:38:31.450Z,86.60
2022-11-28T06:39:32.311Z,87.01
2022-11-28T06:40:33.279Z,87.32
2022-11-28T06:41:34.049Z,87.42
2022-11-28T06:42:34.936Z,87.42
2022-11-28T06:43:35.804Z,87.42
2022-11-28T06:44:36.683Z,87.32
2022-11-28T06:45:37.484Z,86.91
2022-11-28T06:46:38.308Z,86.29
2022-11-28T06:47:39.161Z,86.29
2022-11-28T06:48:40.059Z,86.40
2022-11-28T06:49:41.602Z,86.40
2022-11-28T06:50:41.509Z,87.32
2022-11-28T06:51:42.362Z,87.01
2022-11-28T06:52:43.229Z,87.01
2022-11-28T06:53:44.093Z,87.01
2022-11-28T06:54:45.218Z,86.60
2022-11-28T06:55:45.695Z,86.29
2022-11-28T06:56:46.467Z,86.50
2022-11-28T06:57:47.319Z,85.98
2022-11-28T06:58:48.171Z,85.78
2022-11-28T06:59:49.050Z,85.78
2022-11-28T07:00:49.842Z,85.88
2022-11-28T07:01:50.768Z,85.57
2022-11-28T07:02:51.592Z,85.57
2022-11-28T07:03:52.427Z,85.78
2022-11-28T07:04:53.730Z,85.98
2022-11-28T07:05:54.082Z,86.08
2022-11-28T07:06:54.946Z,85.68
2022-11-28T07:07:55.857Z,85.47
2022-11-28T07:08:56.673Z,85.47
2022-11-28T07:09:57.536Z,85.88
2022-11-28T07:10:58.501Z,85.36
2022-11-28T07:11:59.272Z,85.47
2022-11-28T07:13:04.919Z,85.47
2022-11-28T07:14:01.896Z,85.47
2022-11-28T07:15:02.231Z,85.26
2022-11-28T07:16:02.496Z,85.36
2022-11-28T07:17:03.410Z,85.26
2022-11-28T07:18:04.297Z,84.64
2022-11-28T07:19:05.162Z,84.54
2022-11-28T07:20:06.216Z,84.95
2022-11-28T07:21:06.592Z,84.64
2022-11-28T07:22:07.450Z,84.64
2022-11-28T07:23:08.303Z,85.26
2022-11-28T07:24:09.161Z,85.16
2022-11-28T07:25:10.214Z,85.16
2022-11-28T07:26:10.690Z,84.85
2022-11-28T07:27:11.486Z,84.75
2022-11-28T07:28:12.338Z,84.64
2022-11-28T07:29:13.192Z,84.64
2022-11-28T07:30:14.248Z,84.95
2022-11-28T07:31:15.110Z,84.75
2022-11-28T07:32:15.947Z,84.75
2022-11-28T07:33:16.804Z,84.85
2022-11-28T07:34:17.654Z,84.75
2022-11-28T07:35:18.515Z,85.06
2022-11-28T07:36:19.385Z,85.06
2022-11-28T07:37:20.248Z,85.33
2022-11-28T07:38:21.111Z,85.36
2022-11-28T07:39:21.966Z,85.16
2022-11-28T07:40:23.215Z,84.75
2022-11-28T07:41:26.579Z,85.06
2022-11-28T07:42:24.146Z,84.64
2022-11-28T07:43:25.021Z,84.34
2022-11-28T07:44:25.876Z,84.13
2022-11-28T07:45:41.854Z,84.54
2022-11-28T07:46:28.532Z,84.34
2022-11-28T07:47:28.372Z,84.64
2022-11-28T07:48:29.227Z,84.54
2022-11-28T07:49:30.080Z,84.95
2022-11-28T07:50:31.210Z,84.03
2022-11-28T07:51:31.567Z,83.92
2022-11-28T07:52:32.433Z,84.23
2022-11-28T07:53:33.299Z,84.54
2022-11-28T07:54:34.203Z,84.13
2022-11-28T07:55:35.063Z,84.54
2022-11-28T07:57:10.338Z,84.34
2022-11-28T07:57:37.680Z,84.64
2022-11-28T07:58:37.536Z,84.13
2022-11-28T07:59:38.385Z,84.34
2022-11-28T08:00:39.265Z,84.23
2022-11-28T08:01:40.172Z,84.54
2022-11-28T08:02:40.973Z,84.75
2022-11-28T08:03:41.828Z,84.64
2022-11-28T08:04:48.428Z,84.03
2022-11-28T08:05:44.707Z,84.95
2022-11-28T08:06:44.062Z,84.23
2022-11-28T08:07:44.975Z,84.44
2022-11-28T08:08:45.798Z,84.44
2022-11-28T08:09:46.639Z,84.64
2022-11-28T08:10:47.710Z,84.64
2022-11-28T08:11:48.082Z,84.54
2022-11-28T08:12:48.922Z,84.75
2022-11-28T08:13:50.526Z,84.44
2022-11-28T08:14:50.642Z,85.26
2022-11-28T08:15:51.734Z,84.44
2022-11-28T08:16:52.109Z,84.34
2022-11-28T08:17:52.920Z,84.95
2022-11-28T08:18:53.776Z,84.85
2022-11-28T08:19:54.637Z,84.95
2022-11-28T08:20:55.503Z,84.85
2022-11-28T08:21:56.355Z,84.64
2022-11-28T08:22:57.207Z,84.85
2022-11-28T08:23:58.067Z,84.95
2022-11-28T08:24:58.923Z,84.75
2022-11-28T08:26:00.205Z,84.64
2022-11-28T08:27:00.599Z,84.95
2022-11-28T08:28:01.434Z,85.06
2022-11-28T08:29:02.303Z,85.16
2022-11-28T08:30:03.154Z,85.06
2022-11-28T08:31:04.295Z,84.85
2022-11-28T08:32:04.571Z,85.06
2022-11-28T08:33:05.429Z,84.95
2022-11-28T08:34:06.287Z,85.26
2022-11-28T08:35:07.142Z,85.36
2022-11-28T08:36:08.004Z,84.95
2022-11-28T08:37:08.858Z,85.36
2022-11-28T08:38:09.729Z,85.06
2022-11-28T08:39:25.995Z,85.16
2022-11-28T08:40:12.337Z,85.26
2022-11-28T08:41:12.206Z,85.12
2022-11-28T08:42:13.090Z,85.47
2022-11-28T08:43:13.920Z,85.57
2022-11-28T08:44:14.771Z,85.88
2022-11-28T08:45:15.622Z,85.84
2022-11-28T08:46:16.832Z,86.15
2022-11-28T08:47:17.164Z,85.94
2022-11-28T08:48:18.020Z,86.05
2022-11-28T08:49:18.889Z,85.84
2022-11-28T08:50:19.741Z,86.46
2022-11-28T08:51:20.704Z,86.25
2022-11-28T08:52:21.559Z,86.46
2022-11-28T08:53:22.425Z,86.46
2022-11-28T08:54:23.281Z,86.05
2022-11-28T08:55:31.887Z,86.35
2022-11-28T08:56:26.203Z,86.56
2022-11-28T08:57:25.580Z,86.15
2022-11-28T08:58:26.418Z,86.35
2022-11-28T08:59:27.272Z,86.05
2022-11-28T09:00:28.129Z,86.77
2022-11-28T09:01:29.338Z,86.25
2022-11-28T09:02:29.627Z,86.46
2022-11-28T09:03:30.611Z,86.77
2022-11-28T09:04:30.973Z,86.46
2022-11-28T09:05:31.828Z,86.56
2022-11-28T09:06:32.699Z,86.35
2022-11-28T09:07:33.614Z,86.35
2022-11-28T09:08:34.423Z,86.46
2022-11-28T09:09:35.293Z,86.56
2022-11-28T09:10:36.149Z,86.77
2022-11-28T09:11:37.215Z,86.97
2022-11-28T09:12:37.586Z,86.97
2022-11-28T09:13:38.431Z,86.97
2022-11-28T09:14:39.298Z,86.77
2022-11-28T09:15:40.160Z,87.07
2022-11-28T09:16:41.317Z,86.56
2022-11-28T09:17:41.648Z,86.87
2022-11-28T09:18:42.513Z,87.18
2022-11-28T09:19:44.122Z,87.28
2022-11-28T09:20:44.121Z,86.97
2022-11-28T09:21:45.197Z,87.07
2022-11-28T09:22:45.551Z,87.18
2022-11-28T09:23:46.425Z,87.38
2022-11-28T09:24:47.273Z,87.07
2022-11-28T09:25:48.127Z,87.18
2022-11-28T09:26:48.989Z,86.93
2022-11-28T09:27:49.862Z,87.04
2022-11-28T09:28:50.698Z,86.93
2022-11-28T09:29:51.577Z,86.83
2022-11-28T09:30:52.480Z,86.52
2022-11-28T09:31:53.736Z,86.93
2022-11-28T09:32:54.012Z,86.83
2022-11-28T09:33:54.873Z,87.04
2022-11-28T09:34:55.749Z,86.93
2022-11-28T09:35:56.611Z,87.13
2022-11-28T09:37:00.862Z,87.04
2022-11-28T09:37:59.451Z,87.04
2022-11-28T09:38:59.387Z,87.24
2022-11-28T09:40:13.986Z,87.55
2022-11-28T09:41:01.989Z,87.45
2022-11-28T09:42:02.204Z,87.45
2022-11-28T09:43:02.581Z,86.99
2022-11-28T09:44:03.447Z,87.30
2022-11-28T09:45:04.300Z,87.30
2022-11-28T09:46:05.241Z,87.71
2022-11-28T09:47:06.221Z,87.71
2022-11-28T09:48:06.547Z,87.51
2022-11-28T09:49:07.417Z,87.40
2022-11-28T09:50:08.273Z,87.51
2022-11-28T09:51:09.140Z,87.92
2022-11-28T09:52:10.327Z,88.12
2022-11-28T09:53:10.727Z,88.02
2022-11-28T09:54:11.596Z,88.12
2022-11-28T09:55:12.448Z,88.12
2022-11-28T09:56:13.301Z,87.71
2022-11-28T09:57:14.170Z,87.51
2022-11-28T09:58:15.045Z,87.71
2022-11-28T09:59:15.887Z,87.61
2022-11-28T10:00:16.753Z,87.82
2022-11-28T10:01:17.603Z,87.71
2022-11-28T10:02:18.492Z,87.67
2022-11-28T10:03:19.357Z,87.67
2022-11-28T10:04:20.306Z,87.82
2022-11-28T10:05:20.673Z,88.12
2022-11-28T10:06:21.527Z,88.23
2022-11-28T10:07:22.773Z,88.12
2022-11-28T10:08:23.089Z,87.92
2022-11-28T10:09:23.953Z,88.43
2022-11-28T10:10:24.808Z,88.53
2022-11-28T10:11:25.671Z,88.12
2022-11-28T10:12:26.531Z,88.12
2022-11-28T10:13:41.167Z,88.02
2022-11-28T10:14:29.172Z,88.43
2022-11-28T10:15:29.025Z,88.53
2022-11-28T10:16:29.957Z,88.33
2022-11-28T10:17:31.212Z,89.04
2022-11-28T10:18:31.491Z,88.84
2022-11-28T10:19:57.315Z,89.29
2022-11-28T10:20:34.114Z,89.40
2022-11-28T10:21:33.966Z,89.56
2022-11-28T10:22:34.827Z,89.36
2022-11-28T10:23:35.680Z,89.46
2022-11-28T10:24:36.532Z,89.29
2022-11-28T10:25:37.401Z,89.60
2022-11-28T10:26:38.271Z,89.81
2022-11-28T10:27:39.693Z,90.01
2022-11-28T10:28:40.100Z,90.73
2022-11-28T10:29:41.570Z,91.14
2022-11-28T10:30:41.604Z,90.63
2022-11-28T10:31:42.405Z,91.04
2022-11-28T10:32:43.722Z,90.94
2022-11-28T10:33:44.044Z,90.94
2022-11-28T10:34:44.896Z,91.35
2022-11-28T10:35:45.769Z,91.25
2022-11-28T10:36:46.608Z,91.55
2022-11-28T10:37:47.463Z,91.39
2022-11-28T10:38:48.325Z,91.91
2022-11-28T10:39:49.180Z,91.91
2022-11-28T10:40:50.032Z,92.11
2022-11-28T10:41:50.905Z,91.91
2022-11-28T10:42:52.192Z,92.32
2022-11-28T10:43:52.583Z,92.01
2022-11-28T10:44:53.647Z,92.52
2022-11-28T10:45:54.115Z,92.32
2022-11-28T10:46:54.957Z,92.11
2022-11-28T10:47:56.207Z,92.73
2022-11-28T10:48:56.485Z,92.52
2022-11-28T10:49:57.345Z,92.21
2022-11-28T10:50:58.214Z,92.21
2022-11-28T10:51:59.073Z,92.11
2022-11-28T10:53:00.693Z,92.01
2022-11-28T10:54:00.543Z,91.76
2022-11-28T10:55:01.400Z,91.91
2022-11-28T10:56:03.073Z,92.01
2022-11-28T10:57:02.967Z,92.17
2022-11-28T10:58:04.191Z,91.66
2022-11-28T10:59:04.563Z,91.76
2022-11-28T11:00:05.423Z,91.35
2022-11-28T11:01:06.377Z,91.66
2022-11-28T11:02:07.199Z,91.55
2022-11-28T11:03:08.120Z,91.76
2022-11-28T11:04:08.930Z,91.55
2022-11-28T11:05:09.752Z,91.97
2022-11-28T11:06:10.635Z,91.66
2022-11-28T11:07:17.871Z,91.97
2022-11-28T11:08:13.779Z,91.66
2022-11-28T11:09:13.162Z,92.17
2022-11-28T11:10:14.107Z,92.48
2022-11-28T11:11:14.971Z,91.86
2022-11-28T11:12:15.833Z,92.03
2022-11-28T11:13:17.190Z,91.93
2022-11-28T11:14:17.584Z,92.23
2022-11-28T11:15:18.417Z,91.72
2022-11-28T11:16:19.384Z,92.03
2022-11-28T11:17:20.233Z,91.82
2022-11-28T11:18:21.204Z,91.82
2022-11-28T11:19:22.026Z,92.23
2022-11-28T11:20:22.895Z,92.03
2022-11-28T11:21:23.750Z,92.54
2022-11-28T11:22:24.609Z,92.74
2022-11-28T11:23:25.468Z,92.64
2022-11-28T11:24:26.319Z,92.44
2022-11-28T11:25:27.175Z,92.69
2022-11-28T11:26:28.032Z,93.20
2022-11-28T11:27:28.881Z,93.16
2022-11-28T11:28:29.746Z,93.20
2022-11-28T11:29:30.615Z,93.16
2022-11-28T11:30:31.484Z,92.95
2022-11-28T11:31:32.370Z,92.64
2022-11-28T11:32:33.194Z,92.85
2022-11-28T11:33:34.089Z,92.74
2022-11-28T11:34:34.870Z,93.16
2022-11-28T11:35:35.725Z,92.44
2022-11-28T11:36:36.580Z,92.44
2022-11-28T11:37:37.468Z,92.74
2022-11-28T11:38:38.406Z,93.46
2022-11-28T11:39:39.192Z,93.26
2022-11-28T11:40:40.056Z,93.36
2022-11-28T11:41:40.922Z,93.26
2022-11-28T11:42:41.771Z,92.54
2022-11-28T11:43:42.637Z,92.64
2022-11-28T11:44:43.530Z,92.85
2022-11-28T11:45:47.273Z,92.54
2022-11-28T11:46:46.307Z,92.95
2022-11-28T11:47:45.613Z,92.85
2022-11-28T11:48:46.497Z,92.85
2022-11-28T11:49:47.401Z,93.12
2022-11-28T11:50:48.237Z,92.74
2022-11-28T11:51:49.088Z,92.74
2022-11-28T11:52:49.947Z,92.95
2022-11-28T11:53:51.188Z,93.36
2022-11-28T11:54:51.548Z,92.85
2022-11-28T11:55:52.399Z,92.95
2022-11-28T11:57:05.711Z,93.36
2022-11-28T11:57:55.007Z,93.16
2022-11-28T11:58:55.183Z,92.95
2022-11-28T11:59:55.650Z,93.26
2022-11-28T12:00:56.484Z,93.36
2022-11-28T12:01:57.342Z,93.26
2022-11-28T12:02:58.436Z,93.32
2022-11-28T12:03:58.928Z,93.32
2022-11-28T12:04:59.867Z,92.80
2022-11-28T12:06:15.730Z,93.07
2022-11-28T12:07:02.470Z,92.55
2022-11-28T12:08:02.463Z,91.94
2022-11-28T12:09:03.290Z,92.35
2022-11-28T12:10:04.902Z,92.14
2022-11-28T12:11:04.772Z,92.04
2022-11-28T12:12:05.627Z,92.50
2022-11-28T12:13:06.480Z,93.01
2022-11-28T12:14:07.339Z,92.70
2022-11-28T12:15:08.251Z,93.01
2022-11-28T12:16:09.127Z,93.32
2022-11-28T12:17:32.557Z,93.42
2022-11-28T12:18:11.715Z,93.52
2022-11-28T12:19:11.706Z,93.21
2022-11-28T12:20:12.576Z,93.21
2022-11-28T12:21:13.402Z,93.21
2022-11-28T12:22:14.273Z,93.63
2022-11-28T12:23:17.633Z,93.63
2022-11-28T12:24:15.679Z,94.14
2022-11-28T12:25:16.549Z,94.24
2022-11-28T12:26:17.404Z,93.93
2022-11-28T12:27:18.269Z,93.93
2022-11-28T12:28:19.124Z,93.42
2022-11-28T12:30:20.974Z,93.63
2022-11-28T12:31:21.905Z,94.34
2022-11-28T12:32:22.730Z,93.63
2022-11-28T12:33:23.585Z,93.67
2022-11-28T12:34:24.480Z,94.18
2022-11-28T12:35:25.248Z,94.18
2022-11-28T12:36:26.100Z,94.39
2022-11-28T12:37:41.995Z,94.29
2022-11-28T12:38:28.710Z,94.29
2022-11-28T12:39:28.677Z,94.29
2022-11-28T12:40:29.529Z,94.08
2022-11-28T12:41:32.566Z,94.08
2022-11-28T12:42:30.990Z,94.29
2022-11-28T12:43:31.852Z,94.29
2022-11-28T12:44:33.177Z,94.39
2022-11-28T12:45:33.551Z,94.49
2022-11-28T12:46:34.429Z,94.49
2022-11-28T12:47:35.259Z,94.29
2022-11-28T12:48:36.111Z,94.29
2022-11-28T12:49:37.196Z,93.93
2022-11-28T12:50:37.530Z,93.63
2022-11-28T12:51:38.391Z,93.77
2022-11-28T12:52:39.248Z,94.18
2022-11-28T12:53:40.098Z,94.29
2022-11-28T12:54:41.183Z,94.29
2022-11-28T12:55:41.529Z,94.18
2022-11-28T12:56:42.424Z,94.39
2022-11-28T12:57:43.300Z,94.59
2022-11-28T12:58:44.159Z,94.59
2022-11-28T12:59:45.370Z,94.90
2022-11-28T13:00:45.856Z,94.70
2022-11-28T13:01:46.718Z,94.80
2022-11-28T13:02:47.652Z,95.01
2022-11-28T13:03:48.436Z,94.70